EW6265 Weather Reports


Display with metric or nautical units.
time (UTC)temp
F
wind
direction
speed
MPH
gust
MPH
rain 1hr
in
rain 24hr
in
rain mn
in
humidity
%
barometer
mb
20180221205447 60 265 3.0 12.0 0.00 0.00 0.00 87 1020.9
20180221204025 60 257 0.0 4.0 0.00 0.00 0.00 89 1020.9
20180221202552 60 327 6.0 12.0 0.00 0.00 0.00 93 1020.8
20180221201129 60 266 1.0 7.0 0.00 0.00 0.00 95 1020.8
20180221195657 59 360 0.0 7.0 0.00 0.00 0.00 95 1020.8
20180221194216 57 328 0.0 4.0 0.00 0.00 0.00 96 1021.0
20180221192732 56 355 0.0 6.0 0.00 0.00 0.00 96 1021.2
20180221191304 56 355 2.0 8.0 0.00 0.00 0.00 96 1021.4
20180221185831 56 329 3.0 9.0 0.00 0.00 0.00 96 1021.2
20180221184344 54 263 0.0 0.0 0.00 0.00 0.00 96 1021.0
20180221182900 54 263 0.0 5.0 0.00 0.00 0.00 96 1021.1
20180221181424 53 266 0.0 7.0 0.00 0.00 0.00 96 1021.5
20180221175947 53 283 1.0 6.0 0.00 0.00 0.00 96 1021.6
20180221174512 53 269 2.0 7.0 0.00 0.00 0.00 96 1021.8
20180221173025 53 304 1.0 6.0 0.00 0.00 0.00 96 1022.1
20180221171536 53 281 1.0 6.0 0.00 0.00 0.00 96 1022.4
20180221170042 53 311 1.0 7.0 0.00 0.00 0.00 96 1022.6
20180221164557 54 318 0.0 3.0 0.00 0.00 0.00 96 1022.7
20180221163108 54 347 2.0 7.0 0.00 0.00 0.00 96 1022.9
20180221161647 54 321 1.0 4.0 0.00 0.00 0.00 96 1023.4
20180221160223 54 344 1.0 4.0 0.00 0.00 0.00 96 1023.6
20180221154802 53 355 0.0 4.0 0.00 0.00 0.00 96 1023.7
20180221153331 53 350 0.0 4.0 0.00 0.00 0.00 96 1023.8
20180221151909 53 350 0.0 0.0 0.00 0.00 0.00 96 1024.0
20180221150445 53 340 1.0 6.0 0.00 0.00 0.00 96 1024.0
20180221145013 53 345 0.0 2.0 0.00 0.00 0.00 96 1023.9
20180221143535 53 321 2.0 6.0 0.00 0.00 0.00 96 1024.0
20180221142110 53 326 1.0 6.0 0.00 0.00 0.00 96 1024.0
20180221140641 52 346 1.0 8.0 0.00 0.00 0.00 96 1024.1
20180221135220 53 355 2.0 7.0 0.00 0.00 0.00 96 1024.1
20180221133753 52 324 3.0 8.0 0.00 0.00 0.00 96 1024.2
20180221132329 51 355 0.0 3.0 0.00 0.00 0.00 96 1024.2
20180221130901 50 285 0.0 0.0 0.00 0.01 0.00 96 1024.2
20180221125432 50 285 0.0 4.0 0.00 0.01 0.00 96 1024.2
20180221124009 50 285 2.0 5.0 0.00 0.01 0.00 96 1024.3
20180221122545 50 285 0.0 3.0 0.00 0.01 0.00 96 1024.3
20180221121111 50 285 0.0 3.0 0.00 0.01 0.00 96 1024.1
20180221115652 50 285 0.0 0.0 0.00 0.01 0.00 95 1024.1
20180221114223 50 285 0.0 0.0 0.00 0.01 0.00 96 1024.0
20180221112802 50 285 0.0 0.0 0.00 0.01 0.00 96 1023.9
20180221111335 50 285 0.0 0.0 0.00 0.01 0.00 96 1024.0
20180221105913 50 285 0.0 5.0 0.00 0.01 0.00 95 1023.9
20180221104447 51 285 1.0 5.0 0.00 0.01 0.00 95 1024.0
20180221103025 51 285 0.0 2.0 0.00 0.01 0.00 96 1024.2
20180221101559 51 285 2.0 6.0 0.00 0.01 0.00 95 1024.2
20180221100138 51 281 0.0 3.0 0.00 0.01 0.00 95 1024.2
20180221094709 51 313 0.0 4.0 0.00 0.01 0.00 95 1024.3
20180221093245 52 336 0.0 4.0 0.00 0.01 0.00 95 1024.4
20180221090353 53 309 1.0 10.0 0.00 0.01 0.00 95 1024.3
20180221084928 53 311 0.0 3.0 0.00 0.01 0.00 95 1024.3
20180221083501 53 355 4.0 10.0 0.00 0.01 0.00 95 1024.4
20180221082033 53 351 0.0 8.0 0.00 0.01 0.00 95 1024.4
20180221080610 52 340 0.0 6.0 0.00 0.01 0.00 95 1024.6
20180221075135 53 36 1.0 8.0 0.00 0.01 0.00 95 1024.6
20180221073709 53 10 0.0 8.0 0.00 0.01 0.00 95 1024.5
20180221072225 52 300 0.0 7.0 0.00 0.01 0.00 95 1024.8
20180221070749 52 294 3.0 6.0 0.00 0.01 0.00 95 1025.0
20180221065312 51 331 0.0 0.0 0.00 0.01 0.00 95 1024.9
20180221063833 51 331 0.0 0.0 0.00 0.01 0.00 95 1025.0
20180221062354 50 331 0.0 2.0 0.00 0.01 0.00 95 1025.1
20180221060904 48 248 0.0 2.0 0.00 0.01 0.00 95 1025.4
20180221055417 46 215 0.0 0.0 0.00 0.01 0.00 95 1025.5
20180221053943 46 215 0.0 0.0 0.00 0.01 0.00 95 1025.7
20180221052501 45 215 0.0 0.0 0.00 0.01 0.00 95 1025.7
20180221051030 45 215 0.0 0.0 0.00 0.02 0.01 95 1025.7
20180221045552 45 215 0.0 0.0 0.00 0.02 0.01 95 1025.9
20180221044120 45 215 0.0 0.0 0.00 0.02 0.01 95 1025.9
20180221042653 45 215 0.0 0.0 0.00 0.02 0.01 95 1025.8
20180221041229 45 215 0.0 0.0 0.00 0.03 0.01 95 1025.8
20180221035758 45 215 0.0 0.0 0.00 0.03 0.01 95 1025.7
20180221034331 46 215 0.0 0.0 0.00 0.03 0.01 94 1025.6
20180221032908 46 215 0.0 0.0 0.00 0.03 0.01 95 1025.6
20180221031437 46 215 0.0 0.0 0.00 0.05 0.01 94 1025.5
20180221030013 46 215 0.0 0.0 0.00 0.05 0.01 94 1025.4
20180221024545 47 215 0.0 3.0 0.00 0.05 0.01 94 1025.7
20180221023116 47 290 0.0 0.0 0.00 0.05 0.01 94 1025.4
20180221021644 46 290 0.0 0.0 0.00 0.10 0.01 94 1025.4
20180221020221 46 290 0.0 0.0 0.00 0.10 0.01 94 1025.5
20180221014749 47 290 0.0 0.0 0.00 0.10 0.01 94 1025.4
20180221013319 47 290 0.0 0.0 0.00 0.10 0.01 94 1025.3
20180221011837 47 290 0.0 0.0 0.00 0.10 0.01 93 1025.1
20180221010402 47 290 0.0 0.0 0.00 0.12 0.01 93 1024.9
20180221004930 48 290 0.0 0.0 0.00 0.12 0.01 93 1024.8
20180221003504 48 290 0.0 0.0 0.00 0.12 0.01 93 1024.8
20180221002030 49 290 0.0 0.0 0.00 0.12 0.01 93 1024.9
20180221000556 49 290 0.0 1.0 0.00 0.14 0.01 93 1024.8
20180220235102 49 290 0.0 0.0 0.00 0.14 0.01 93 1024.8
20180220233615 50 290 0.0 0.0 0.00 0.14 0.01 92 1025.0
20180220232120 50 290 0.0 0.0 0.00 0.14 0.01 92 1024.8
20180220230656 50 290 0.0 1.0 0.00 0.18 0.01 92 1024.6
20180220225224 50 290 0.0 0.0 0.00 0.18 0.01 92 1024.3
20180220223803 51 290 0.0 0.0 0.00 0.18 0.01 91 1024.2
20180220222338 51 290 0.0 0.0 0.00 0.18 0.01 91 1024.2
20180220220914 52 290 0.0 4.0 0.00 0.18 0.01 91 1023.9
20180220215453 53 298 1.0 7.0 0.00 0.18 0.01 90 1023.8
20180220214029 54 287 4.0 10.0 0.00 0.18 0.01 89 1023.6
20180220212559 55 294 0.0 10.0 0.00 0.18 0.01 87 1023.4
20180220211138 56 275 2.0 7.0 0.00 0.18 0.01 85 1023.3